Time;durP1;ratioP1;P1;durP2;ratioP2;P2;SDS_P1;SDS_P2;PMS_P1;PMS_P2;Temp;Humidity;BMP_temperature;BMP_pressure;BME280_temperature;BME280_humidity;BME280_pressure;Samples;Min_cycle;Max_cycle;Signal;HPM_P1;HPM_P2
2023/05/07 00:02:03;;;;;;;3.47;2.33;;;;;;;14.04;100.00;101583.38;10337527;28;20370;-82
2023/05/07 00:07:04;;;;;;;1.98;1.98;;;;;;;13.96;100.00;101593.41;10320666;28;20034;-82
2023/05/07 00:12:05;;;;;;;0.88;0.88;;;;;;;13.87;100.00;101589.19;10302996;28;20137;-80
2023/05/07 00:17:05;;;;;;;1.85;1.52;;;;;;;13.81;100.00;101591.88;10318978;28;20049;-81
2023/05/07 00:22:06;;;;;;;8.43;1.38;;;;;;;13.74;100.00;101589.13;10335702;28;20041;-81
2023/05/07 00:27:06;;;;;;;5.50;3.33;;;;;;;13.67;100.00;101586.34;10336280;28;20033;-81
2023/05/07 00:32:06;;;;;;;1.90;1.55;;;;;;;13.70;100.00;101583.25;10336048;28;20085;-82
2023/05/07 00:37:07;;;;;;;2.83;2.53;;;;;;;13.68;100.00;101576.31;10335752;28;20061;-81
2023/05/07 00:42:08;;;;;;;2.83;2.63;;;;;;;13.69;100.00;101581.56;10335292;28;20080;-81
2023/05/07 00:47:08;;;;;;;6.40;2.88;;;;;;;13.69;100.00;101581.56;10301984;28;20366;-79
2023/05/07 00:52:14;;;;;;;6.53;3.45;;;;;;;13.66;100.00;101568.34;10334601;28;20038;-82
2023/05/07 00:57:15;;;;;;;2.38;2.00;;;;;;;13.66;100.00;101584.69;10318420;28;20417;-81
2023/05/07 01:02:16;;;;;;;1.85;1.83;;;;;;;13.64;100.00;101569.59;10336830;28;20034;-84
2023/05/07 01:07:16;;;;;;;4.88;3.50;;;;;;;13.67;100.00;101569.19;10302535;28;20034;-81
2023/05/07 01:12:17;;;;;;;2.05;1.95;;;;;;;13.66;100.00;101562.09;10333439;28;20117;-83
2023/05/07 01:17:17;;;;;;;3.60;3.50;;;;;;;13.65;100.00;101555.78;10334317;28;20058;-81
2023/05/07 01:22:32;;;;;;;4.88;2.00;;;;;;;13.62;100.00;101550.72;10316921;28;20113;-80
2023/05/07 01:27:33;;;;;;;1.05;1.05;;;;;;;13.58;100.00;101552.19;10316285;28;20050;-80
2023/05/07 01:32:38;;;;;;;1.50;1.45;;;;;;;13.56;100.00;101551.56;10333877;28;20033;-82
2023/05/07 01:37:39;;;;;;;1.75;1.75;;;;;;;13.54;100.00;101555.53;10333320;28;20351;-82
2023/05/07 01:42:40;;;;;;;3.03;2.83;;;;;;;13.57;100.00;101553.25;10333724;28;20031;-82
2023/05/07 01:47:40;;;;;;;0.75;0.75;;;;;;;13.58;100.00;101557.63;10316658;28;20185;-81
2023/05/07 01:52:41;;;;;;;3.60;3.38;;;;;;;13.62;100.00;101547.19;10299570;28;20033;-82
2023/05/07 01:57:41;;;;;;;1.80;1.80;;;;;;;13.66;100.00;101553.91;10324239;28;20105;-82
2023/05/07 02:02:42;;;;;;;2.03;1.95;;;;;;;13.70;100.00;101549.75;10341719;28;20140;-80
2023/05/07 02:07:42;;;;;;;1.15;1.15;;;;;;;13.64;100.00;101547.81;10324139;28;20109;-81
2023/05/07 02:12:43;;;;;;;1.15;1.15;;;;;;;13.68;100.00;101547.19;10341182;28;20089;-80
2023/05/07 02:18:03;;;;;;;1.95;1.90;;;;;;;13.68;100.00;101559.97;10325207;28;20406;-80
2023/05/07 02:23:03;;;;;;;2.35;2.25;;;;;;;13.71;100.00;101560.41;10323046;28;20036;-81
2023/05/07 02:28:04;;;;;;;0.98;0.98;;;;;;;13.71;100.00;101548.69;10340858;28;20035;-81
2023/05/07 02:33:04;;;;;;;0.90;0.90;;;;;;;13.72;100.00;101556.66;10323233;28;20049;-79
2023/05/07 02:38:05;;;;;;;0.50;0.50;;;;;;;13.69;100.00;101559.78;10339911;28;20096;-81
2023/05/07 02:43:05;;;;;;;1.40;1.40;;;;;;;13.72;100.00;101562.13;10340033;28;20066;-81
2023/05/07 02:48:06;;;;;;;1.23;1.02;;;;;;;13.76;100.00;101559.00;10339361;28;20074;-80
2023/05/07 02:53:06;;;;;;;1.25;1.25;;;;;;;13.83;100.00;101557.97;10322935;28;20040;-81
2023/05/07 02:58:07;;;;;;;0.82;0.82;;;;;;;13.86;100.00;101564.88;10340817;28;20042;-79
2023/05/07 03:03:07;;;;;;;2.17;2.08;;;;;;;13.88;100.00;101563.66;10339049;28;20030;-79
2023/05/07 03:08:08;;;;;;;5.72;4.00;;;;;;;13.91;100.00;101570.53;10338495;28;20073;-79
2023/05/07 03:13:08;;;;;;;1.73;1.70;;;;;;;13.90;100.00;101571.59;10339703;28;20054;-80
2023/05/07 03:18:09;;;;;;;1.77;1.77;;;;;;;13.94;100.00;101556.53;10339005;28;20038;-80
2023/05/07 03:23:09;;;;;;;2.22;1.45;;;;;;;13.94;100.00;101560.13;10338137;28;20541;-79
2023/05/07 03:28:10;;;;;;;1.05;1.05;;;;;;;13.97;100.00;101561.56;10321071;28;20463;-79
2023/05/07 03:33:10;;;;;;;0.93;0.93;;;;;;;13.95;100.00;101553.63;10337664;28;20518;-81
2023/05/07 03:38:11;;;;;;;3.05;2.78;;;;;;;13.94;100.00;101551.09;10320219;28;20117;-80
2023/05/07 03:43:11;;;;;;;2.00;1.95;;;;;;;13.96;100.00;101549.84;10321063;28;20034;-80
2023/05/07 03:48:12;;;;;;;1.90;1.70;;;;;;;13.95;100.00;101541.88;10320382;28;20030;-79
2023/05/07 03:53:12;;;;;;;1.58;1.48;;;;;;;13.96;100.00;101551.72;10320153;28;20133;-79
2023/05/07 03:58:12;;;;;;;1.00;1.00;;;;;;;13.97;100.00;101556.13;10337184;28;20045;-79
2023/05/07 04:03:13;;;;;;;1.85;1.75;;;;;;;14.01;100.00;101565.59;10319198;28;20030;-80
2023/05/07 04:08:14;;;;;;;1.77;1.73;;;;;;;14.02;100.00;101569.97;10319612;28;20030;-79
2023/05/07 04:13:14;;;;;;;1.45;1.05;;;;;;;14.03;100.00;101574.38;10337414;28;20100;-80
2023/05/07 04:18:15;;;;;;;2.92;2.83;;;;;;;14.04;100.00;101570.63;10303688;28;20116;-80
2023/05/07 04:23:15;;;;;;;1.25;1.25;;;;;;;14.05;100.00;101569.56;10336155;28;20084;-79
2023/05/07 04:28:16;;;;;;;1.23;1.23;;;;;;;14.09;100.00;101576.28;10318630;28;20041;-80
2023/05/07 04:33:17;;;;;;;0.73;0.73;;;;;;;14.11;100.00;101578.81;10336199;28;20038;-79
2023/05/07 04:38:18;;;;;;;14.68;1.92;;;;;;;14.08;100.00;101571.88;10336257;28;20034;-79
2023/05/07 04:43:18;;;;;;;0.95;0.95;;;;;;;14.07;100.00;101578.38;10334752;28;20462;-79
2023/05/07 04:48:20;;;;;;;1.20;1.20;;;;;;;14.11;100.00;101573.38;10335441;28;20108;-78
2023/05/07 04:53:21;;;;;;;18.40;15.80;;;;;;;14.15;100.00;101572.75;10336381;28;20037;-79
2023/05/07 04:58:21;;;;;;;18.58;16.67;;;;;;;14.17;100.00;101578.00;10317878;28;20446;-80
2023/05/07 05:03:22;;;;;;;22.58;17.55;;;;;;;14.21;100.00;101578.44;10317982;28;20097;-80
2023/05/07 05:08:22;;;;;;;20.15;16.63;;;;;;;14.29;100.00;101578.22;10334605;28;20417;-80
2023/05/07 05:13:23;;;;;;;21.13;17.95;;;;;;;14.37;100.00;101591.66;10316293;28;20069;-78
2023/05/07 05:18:23;;;;;;;18.58;16.10;;;;;;;14.40;100.00;101593.97;10335397;28;20042;-79
2023/05/07 05:23:23;;;;;;;27.27;18.02;;;;;;;14.46;100.00;101593.16;10318109;28;20026;-79
2023/05/07 05:28:24;;;;;;;19.10;16.30;;;;;;;14.49;100.00;101592.75;10316620;28;20035;-79
2023/05/07 05:33:24;;;;;;;21.05;16.50;;;;;;;14.56;100.00;101596.34;10333839;28;20069;-78
2023/05/07 05:38:25;;;;;;;20.73;15.88;;;;;;;14.71;100.00;101608.94;10316254;28;20465;-77
2023/05/07 05:43:26;;;;;;;23.58;17.77;;;;;;;14.87;100.00;101616.75;10316248;28;20045;-78
2023/05/07 05:48:26;;;;;;;22.75;17.73;;;;;;;15.08;100.00;101610.22;10333554;28;20026;-79
2023/05/07 05:53:26;;;;;;;21.30;16.25;;;;;;;15.32;100.00;101615.06;10333280;28;20121;-76
2023/05/07 05:58:27;;;;;;;21.77;17.45;;;;;;;15.50;100.00;101622.56;10317456;28;20034;-76
2023/05/07 06:03:27;;;;;;;18.65;15.05;;;;;;;15.56;100.00;101615.44;10316389;28;20034;-76
2023/05/07 06:08:29;;;;;;;24.80;18.75;;;;;;;16.70;100.00;101616.66;10315724;28;20058;-75
2023/05/07 06:13:29;;;;;;;20.13;15.45;;;;;;;16.39;100.00;101614.75;10333360;28;20078;-75
2023/05/07 06:18:31;;;;;;;17.73;15.38;;;;;;;16.09;100.00;101615.31;10333799;28;20049;-75
2023/05/07 06:23:31;;;;;;;17.67;14.00;;;;;;;15.97;100.00;101623.34;10332271;28;20389;-74
2023/05/07 06:28:35;;;;;;;21.33;16.23;;;;;;;17.18;100.00;101621.59;10314945;28;20038;-75
2023/05/07 06:33:36;;;;;;;16.15;14.45;;;;;;;18.40;100.00;101623.63;10332623;28;20037;-74
2023/05/07 06:38:36;;;;;;;21.98;12.85;;;;;;;17.67;100.00;101617.09;10331425;28;20371;-75
2023/05/07 06:43:36;;;;;;;12.98;11.68;;;;;;;17.14;100.00;101623.09;10305116;28;20027;-75
2023/05/07 06:48:37;;;;;;;15.13;11.35;;;;;;;17.93;100.00;101620.63;10340951;28;20067;-73
2023/05/07 06:53:37;;;;;;;12.65;11.55;;;;;;;17.88;100.00;101633.13;10322288;28;20022;-71
2023/05/07 06:58:37;;;;;;;11.95;10.75;;;;;;;17.91;100.00;101640.06;10338889;28;20053;-74
2023/05/07 07:03:38;;;;;;;19.13;11.50;;;;;;;17.77;100.00;101628.41;10338707;28;20046;-74
2023/05/07 07:08:38;;;;;;;10.55;9.48;;;;;;;18.14;100.00;101633.88;10339660;28;20472;-74
2023/05/07 07:13:40;;;;;;;16.83;10.60;;;;;;;17.87;100.00;101636.09;10338545;28;20050;-72
2023/05/07 07:18:40;;;;;;;13.70;11.35;;;;;;;18.89;100.00;101635.38;10339232;28;20038;-74
2023/05/07 07:23:40;;;;;;;10.77;9.73;;;;;;;19.18;100.00;101636.41;10337657;28;20038;-74
2023/05/07 07:28:47;;;;;;;10.95;9.88;;;;;;;18.72;100.00;101641.53;10337886;28;20049;-74
2023/05/07 07:33:49;;;;;;;10.65;9.50;;;;;;;18.34;100.00;101628.97;10337701;28;20387;-74
2023/05/07 07:38:50;;;;;;;13.13;9.93;;;;;;;18.16;100.00;101639.16;10337541;28;20534;-74
2023/05/07 07:43:50;;;;;;;15.32;10.95;;;;;;;18.03;100.00;101640.16;10338318;28;20039;-75
2023/05/07 07:48:50;;;;;;;12.80;9.98;;;;;;;18.24;100.00;101639.66;10319240;28;20490;-74
2023/05/07 07:53:51;;;;;;;13.55;9.73;;;;;;;18.51;100.00;101639.31;10336250;28;20026;-72
2023/05/07 07:58:51;;;;;;;11.95;10.75;;;;;;;18.50;100.00;101632.13;10336878;28;20069;-76
2023/05/07 08:03:51;;;;;;;13.65;9.45;;;;;;;18.65;100.00;101639.94;10336620;28;20113;-73
2023/05/07 08:08:52;;;;;;;12.45;11.10;;;;;;;18.83;100.00;101641.84;10319064;28;20164;-77
2023/05/07 08:13:53;;;;;;;10.98;9.70;;;;;;;18.89;100.00;101646.38;10335120;28;20129;-73
2023/05/07 08:18:53;;;;;;;12.52;9.30;;;;;;;18.87;100.00;101651.28;10336451;28;20463;-72
2023/05/07 08:23:54;;;;;;;12.13;10.93;;;;;;;18.69;100.00;101658.44;10335294;28;20038;-75
2023/05/07 08:28:54;;;;;;;12.10;9.32;;;;;;;18.75;100.00;101665.78;10318219;28;20038;-74
2023/05/07 08:33:55;;;;;;;13.85;10.13;;;;;;;18.87;100.00;101659.50;10335470;28;20030;-73
2023/05/07 08:38:55;;;;;;;9.73;8.25;;;;;;;19.01;100.00;101671.94;10317325;28;20026;-73
2023/05/07 08:43:57;;;;;;;11.15;7.70;;;;;;;19.24;100.00;101662.91;10249097;28;20050;-71
2023/05/07 08:48:58;;;;;;;11.05;7.32;;;;;;;19.59;100.00;101668.44;10318579;28;20149;-73
2023/05/07 08:53:58;;;;;;;7.65;6.93;;;;;;;20.56;100.00;101678.00;10334848;28;20034;-73
2023/05/07 08:58:59;;;;;;;14.77;7.80;;;;;;;20.84;100.00;101674.41;10318124;28;20446;-73
2023/05/07 09:03:59;;;;;;;9.45;7.53;;;;;;;21.17;100.00;101678.28;10333969;28;20074;-74
2023/05/07 09:09:01;;;;;;;9.50;8.32;;;;;;;22.06;100.00;101678.28;10316509;28;20041;-73
2023/05/07 09:14:02;;;;;;;12.23;8.50;;;;;;;22.42;100.00;101679.59;10317211;28;20097;-74
2023/05/07 09:19:03;;;;;;;8.93;5.70;;;;;;;21.94;100.00;101677.56;10335429;28;20121;-73
2023/05/07 09:24:03;;;;;;;9.93;6.43;;;;;;;21.31;100.00;101680.47;10334328;28;20477;-73
2023/05/07 09:29:04;;;;;;;14.43;6.75;;;;;;;21.08;100.00;101688.88;10316633;28;20030;-73
2023/05/07 09:34:05;;;;;;;10.27;7.55;;;;;;;21.59;100.00;101687.81;10315975;28;20069;-73
2023/05/07 09:39:05;;;;;;;7.97;7.28;;;;;;;22.36;100.00;101688.91;10333241;28;20027;-73
2023/05/07 09:44:05;;;;;;;8.15;7.32;;;;;;;22.42;100.00;101685.13;10317870;28;20031;-74
2023/05/07 09:49:07;;;;;;;8.35;6.88;;;;;;;22.42;100.00;101684.28;10316852;28;20054;-73
2023/05/07 09:54:07;;;;;;;9.02;6.15;;;;;;;22.39;100.00;101688.38;10299856;28;20126;-74
2023/05/07 09:59:08;;;;;;;8.00;7.15;;;;;;;22.36;100.00;101688.06;10332885;28;20039;-74
2023/05/07 10:04:08;;;;;;;6.95;6.28;;;;;;;22.32;100.00;101695.22;10314725;28;20031;-74
2023/05/07 10:09:09;;;;;;;6.85;5.95;;;;;;;23.11;100.00;101695.56;10333682;28;20036;-73
2023/05/07 10:14:10;;;;;;;14.93;6.78;;;;;;;23.51;100.00;101698.91;10333340;28;20466;-74
2023/05/07 10:19:10;;;;;;;11.95;6.35;;;;;;;24.32;100.00;101691.13;10324700;28;20396;-74
2023/05/07 10:24:16;;;;;;;10.05;6.18;;;;;;;24.22;100.00;101690.25;10323698;28;20402;-74
2023/05/07 10:29:34;;;;;;;12.77;8.18;;;;;;;24.01;100.00;101694.84;10324481;28;20446;-74
2023/05/07 10:34:36;;;;;;;6.85;6.28;;;;;;;23.27;100.00;101691.00;10340953;28;20135;-74
2023/05/07 10:39:37;;;;;;;11.02;7.28;;;;;;;22.57;100.00;101691.94;10322458;28;20052;-73
2023/05/07 10:44:37;;;;;;;15.55;8.27;;;;;;;22.34;100.00;101695.78;10339009;28;20030;-73
2023/05/07 10:49:44;;;;;;;11.82;8.38;;;;;;;21.99;100.00;101705.22;10322343;28;20041;-74
2023/05/07 10:54:45;;;;;;;11.65;7.28;;;;;;;22.20;100.00;101706.34;10339331;28;20109;-74
2023/05/07 10:59:45;;;;;;;10.18;6.10;;;;;;;22.48;100.00;101703.41;10321720;28;20133;-74
2023/05/07 11:04:46;;;;;;;9.95;7.20;;;;;;;23.28;100.00;101711.16;10321549;28;20034;-74
2023/05/07 11:09:52;;;;;;;10.10;6.85;;;;;;;23.51;100.00;101715.50;10321128;28;20026;-74
2023/05/07 11:14:53;;;;;;;8.57;5.95;;;;;;;23.61;100.00;101713.66;10338556;28;20066;-74
2023/05/07 11:19:54;;;;;;;11.02;5.35;;;;;;;23.38;100.00;101711.25;10321549;28;20084;-74
2023/05/07 11:24:55;;;;;;;6.57;5.72;;;;;;;23.21;100.00;101709.47;10320750;28;20066;-74
2023/05/07 11:29:56;;;;;;;12.82;6.72;;;;;;;23.12;100.00;101710.19;10318778;28;20057;-74
2023/05/07 11:34:57;;;;;;;16.73;6.40;;;;;;;22.89;100.00;101703.03;10338295;28;20085;-74
2023/05/07 11:40:06;;;;;;;15.07;6.57;;;;;;;22.65;100.00;101719.06;10305095;28;20034;-74
2023/05/07 11:45:07;;;;;;;14.18;6.28;;;;;;;22.34;100.00;101715.94;10303901;28;20093;-74
2023/05/07 11:50:08;;;;;;;7.40;6.25;;;;;;;22.10;100.00;101725.50;10338778;28;20030;-74
2023/05/07 11:55:08;;;;;;;15.98;8.50;;;;;;;21.68;100.00;101739.78;10336274;28;20537;-74
2023/05/07 12:00:09;;;;;;;11.57;9.50;;;;;;;20.84;100.00;101746.81;10336701;28;20118;-74
2023/05/07 12:05:09;;;;;;;13.35;9.93;;;;;;;20.29;100.00;101739.03;10335997;28;20046;-73
2023/05/07 12:10:11;;;;;;;12.80;10.55;;;;;;;19.95;100.00;101740.75;10318830;28;20065;-74
2023/05/07 12:15:16;;;;;;;13.05;11.63;;;;;;;19.53;100.00;101751.81;10318298;28;20418;-73
2023/05/07 12:20:17;;;;;;;16.53;10.53;;;;;;;19.25;100.00;101755.22;10303946;28;20042;-73
2023/05/07 12:25:19;;;;;;;21.98;12.75;;;;;;;19.05;100.00;101747.28;10317881;28;20029;-74
2023/05/07 12:30:19;;;;;;;22.83;14.07;;;;;;;18.61;100.00;101760.28;10318800;28;20046;-73
2023/05/07 12:35:30;;;;;;;31.60;14.20;;;;;;;18.44;100.00;101773.78;10334325;28;20394;-72
2023/05/07 12:40:37;;;;;;;26.40;17.30;;;;;;;18.42;100.00;101767.69;10302172;28;20048;-74
2023/05/07 12:45:38;;;;;;;20.92;16.45;;;;;;;18.31;100.00;101773.91;10335096;28;20043;-75
2023/05/07 12:50:39;;;;;;;25.67;16.13;;;;;;;18.26;100.00;101768.28;10317763;28;20045;-76
2023/05/07 12:55:50;;;;;;;37.22;18.45;;;;;;;18.33;100.00;101780.84;10317698;28;20030;-77
2023/05/07 13:00:50;;;;;;;24.13;15.90;;;;;;;18.34;100.00;101777.03;10335770;28;20046;-76
2023/05/07 13:05:51;;;;;;;23.25;15.77;;;;;;;18.57;100.00;101781.03;10318385;28;20042;-77
2023/05/07 13:10:53;;;;;;;20.05;16.40;;;;;;;18.98;100.00;101784.94;10302218;28;20092;-77
2023/05/07 13:15:53;;;;;;;21.92;15.70;;;;;;;19.52;100.00;101783.09;10333639;28;20061;-76
2023/05/07 13:20:54;;;;;;;25.95;15.88;;;;;;;20.11;100.00;101786.78;10334067;28;20352;-77
2023/05/07 13:25:55;;;;;;;38.22;16.33;;;;;;;19.93;100.00;101789.63;10334448;28;20528;-77
2023/05/07 13:30:56;;;;;;;23.38;14.90;;;;;;;19.39;100.00;101791.53;10333204;28;20484;-78
2023/05/07 13:35:56;;;;;;;27.75;16.35;;;;;;;19.08;100.00;101785.25;10333252;28;20054;-78
2023/05/07 13:40:57;;;;;;;21.55;15.77;;;;;;;19.01;100.00;101784.47;10333508;28;20479;-78
2023/05/07 13:45:58;;;;;;;24.25;15.48;;;;;;;19.05;100.00;101789.28;10316135;28;20343;-77
2023/05/07 13:50:58;;;;;;;17.77;14.98;;;;;;;19.13;100.00;101790.03;10299201;28;20092;-78
2023/05/07 13:55:59;;;;;;;22.73;15.93;;;;;;;19.11;100.00;101800.41;10332443;28;20478;-77
2023/05/07 14:00:59;;;;;;;29.10;17.85;;;;;;;19.06;100.00;101801.09;10331475;28;20121;-78
2023/05/07 14:06:01;;;;;;;23.73;15.95;;;;;;;19.05;100.00;101803.03;10316487;28;20109;-76
2023/05/07 14:11:01;;;;;;;27.17;18.25;;;;;;;19.26;100.00;101798.91;10332868;28;20054;-76
2023/05/07 14:16:03;;;;;;;28.90;18.02;;;;;;;19.29;100.00;101803.94;10315204;28;20070;-76
2023/05/07 14:21:06;;;;;;;17.48;14.65;;;;;;;19.35;100.00;101804.91;10299402;28;20057;-76
2023/05/07 14:26:06;;;;;;;32.13;18.20;;;;;;;19.08;100.00;101798.97;10299294;28;20026;-76
2023/05/07 14:31:06;;;;;;;23.60;17.40;;;;;;;18.98;100.00;101813.22;10332141;28;20487;-76
2023/05/07 14:36:07;;;;;;;21.77;14.43;;;;;;;18.87;100.00;101807.69;10331961;28;20061;-75
2023/05/07 14:41:07;;;;;;;19.92;16.50;;;;;;;18.82;100.00;101816.59;10332159;28;20113;-75
2023/05/07 14:46:08;;;;;;;30.30;17.48;;;;;;;18.71;100.00;101803.63;10330907;28;20390;-75
2023/05/07 14:51:08;;;;;;;19.25;15.43;;;;;;;18.59;100.00;101803.56;10300063;28;20037;-75
2023/05/07 14:56:09;;;;;;;25.15;16.60;;;;;;;18.50;100.00;101810.41;10332289;28;20383;-75
2023/05/07 15:01:09;;;;;;;24.63;15.80;;;;;;;18.39;100.00;101822.16;10333865;28;20443;-75
2023/05/07 15:06:10;;;;;;;26.88;18.13;;;;;;;18.30;100.00;101825.19;10322806;28;20062;-75
2023/05/07 15:11:10;;;;;;;21.42;14.63;;;;;;;18.22;100.00;101828.22;10338778;28;20138;-75
2023/05/07 15:16:11;;;;;;;34.83;15.27;;;;;;;18.23;100.00;101838.13;10339399;28;20088;-75
2023/05/07 15:21:11;;;;;;;19.25;13.48;;;;;;;18.28;100.00;101843.78;10321059;28;20050;-74
2023/05/07 15:26:12;;;;;;;21.92;12.82;;;;;;;18.16;100.00;101844.75;10338722;28;20045;-75
2023/05/07 15:31:12;;;;;;;19.15;12.50;;;;;;;17.95;100.00;101855.03;10320859;28;20034;-76
2023/05/07 15:36:13;;;;;;;16.15;11.02;;;;;;;17.82;100.00;101858.72;10337861;28;20113;-76
2023/05/07 15:41:13;;;;;;;27.25;12.18;;;;;;;17.69;100.00;101856.03;10338713;28;20046;-77
2023/05/07 15:46:23;;;;;;;16.05;11.10;;;;;;;17.62;100.00;101858.00;10338731;28;20041;-77
2023/05/07 15:51:23;;;;;;;22.67;9.75;;;;;;;17.57;100.00;101855.06;10320969;28;20050;-77
2023/05/07 15:56:24;;;;;;;14.35;8.77;;;;;;;17.58;100.00;101867.69;10320241;28;20108;-77
2023/05/07 16:01:24;;;;;;;11.25;8.13;;;;;;;17.56;100.00;101864.34;10336325;28;20117;-77
2023/05/07 16:06:25;;;;;;;13.15;8.75;;;;;;;17.56;100.00;101867.09;10336169;28;20109;-77
2023/05/07 16:11:26;;;;;;;12.82;9.82;;;;;;;17.55;100.00;101870.84;10335193;28;20043;-78
2023/05/07 16:16:28;;;;;;;15.50;9.30;;;;;;;17.46;100.00;101873.03;10335040;28;20043;-78
2023/05/07 16:21:29;;;;;;;12.20;9.77;;;;;;;17.38;100.00;101870.53;10318544;28;20390;-77
2023/05/07 16:26:30;;;;;;;15.63;9.82;;;;;;;17.34;100.00;101874.78;10319195;28;20034;-78
2023/05/07 16:31:30;;;;;;;11.10;9.32;;;;;;;17.29;100.00;101878.16;10334539;28;20201;-78
2023/05/07 16:36:31;;;;;;;16.88;11.27;;;;;;;17.30;100.00;101887.25;10334937;28;20383;-78
2023/05/07 16:41:32;;;;;;;21.08;11.32;;;;;;;17.28;100.00;101881.97;10318623;28;20382;-78
2023/05/07 16:46:32;;;;;;;20.30;13.75;;;;;;;17.29;100.00;101880.91;10317364;28;20359;-77
2023/05/07 16:51:33;;;;;;;18.48;13.57;;;;;;;17.22;100.00;101871.06;10334799;28;20120;-78
2023/05/07 16:56:34;;;;;;;27.15;13.73;;;;;;;17.19;100.00;101861.38;10334604;28;20026;-77
2023/05/07 17:01:34;;;;;;;25.92;14.93;;;;;;;17.23;100.00;101873.59;10316852;28;20149;-77
2023/05/07 17:06:35;;;;;;;18.25;14.30;;;;;;;17.33;100.00;101865.75;10334597;28;20382;-78
2023/05/07 17:11:35;;;;;;;21.88;14.55;;;;;;;17.46;100.00;101864.00;10336158;28;20038;-78
2023/05/07 17:16:36;;;;;;;18.63;13.82;;;;;;;17.49;100.00;101869.03;10335475;28;20050;-79
2023/05/07 17:21:36;;;;;;;27.20;14.95;;;;;;;17.53;100.00;101868.34;10316507;28;20038;-79
2023/05/07 17:26:38;;;;;;;30.58;14.15;;;;;;;17.48;100.00;101879.13;10333889;28;20141;-77
2023/05/07 17:31:38;;;;;;;21.38;13.80;;;;;;;17.33;100.00;101884.91;10333883;28;20089;-78
2023/05/07 17:36:39;;;;;;;22.77;15.38;;;;;;;17.28;100.00;101886.59;10333465;28;20031;-78
2023/05/07 17:41:39;;;;;;;20.92;13.70;;;;;;;17.27;100.00;101887.69;10334641;28;20058;-79
2023/05/07 17:46:39;;;;;;;18.08;14.50;;;;;;;17.25;100.00;101887.03;10333543;28;20054;-80
2023/05/07 17:51:40;;;;;;;17.13;14.95;;;;;;;17.24;100.00;101891.69;10332829;28;20042;-79
2023/05/07 17:56:41;;;;;;;19.60;15.32;;;;;;;17.24;100.00;101899.06;10316050;28;20038;-78
2023/05/07 18:01:42;;;;;;;21.95;15.13;;;;;;;17.29;100.00;101894.59;10317362;28;20042;-79
2023/05/07 18:06:43;;;;;;;15.50;12.95;;;;;;;17.27;100.00;101893.16;10333658;28;20045;-79
2023/05/07 18:11:43;;;;;;;22.75;14.57;;;;;;;17.24;100.00;101905.38;10315155;28;20070;-80
2023/05/07 18:16:44;;;;;;;23.65;14.55;;;;;;;17.26;100.00;101914.22;10334830;28;20133;-80
2023/05/07 18:21:44;;;;;;;19.70;14.80;;;;;;;17.29;100.00;101916.50;10332445;28;20050;-80
2023/05/07 18:26:45;;;;;;;26.40;13.50;;;;;;;17.29;100.00;101923.88;10315510;28;20081;-79
2023/05/07 18:31:45;;;;;;;20.42;13.25;;;;;;;17.29;100.00;101918.41;10332614;28;20045;-79
2023/05/07 18:36:46;;;;;;;16.08;12.77;;;;;;;17.18;100.00;101915.28;10319059;28;20034;-80
2023/05/07 18:41:47;;;;;;;23.77;12.85;;;;;;;17.10;100.00;101921.03;10340214;28;20045;-78
2023/05/07 18:46:48;;;;;;;15.50;11.85;;;;;;;17.02;100.00;101921.25;10339812;28;20038;-79
2023/05/07 18:51:49;;;;;;;16.67;11.10;;;;;;;16.89;100.00;101930.34;10322404;28;20124;-80
2023/05/07 18:56:49;;;;;;;19.23;12.27;;;;;;;16.71;100.00;101922.75;10339567;28;20030;-79
2023/05/07 19:01:50;;;;;;;16.40;11.88;;;;;;;16.51;100.00;101925.53;10338992;28;20113;-79
2023/05/07 19:06:50;;;;;;;13.77;12.15;;;;;;;16.30;100.00;101930.38;10339440;28;20046;-79
2023/05/07 19:11:50;;;;;;;24.67;15.35;;;;;;;16.14;100.00;101934.34;10338559;28;20041;-81
2023/05/07 19:16:51;;;;;;;21.02;12.52;;;;;;;16.01;100.00;101946.94;10298205;28;20069;-80
2023/05/07 19:21:52;;;;;;;14.13;12.63;;;;;;;15.91;100.00;101938.31;10298236;28;20031;-79
2023/05/07 19:26:52;;;;;;;19.30;13.75;;;;;;;15.80;100.00;101938.94;10298546;28;20039;-80
2023/05/07 19:31:53;;;;;;;24.95;15.50;;;;;;;15.72;100.00;101952.78;10280815;28;20035;-78
2023/05/07 19:36:53;;;;;;;16.95;14.75;;;;;;;15.62;100.00;101960.50;10298125;28;20446;-79
2023/05/07 19:41:53;;;;;;;25.63;18.40;;;;;;;15.50;100.00;101965.69;10297311;28;20071;-80
2023/05/07 19:46:54;;;;;;;26.95;15.73;;;;;;;15.45;100.00;101974.50;10280154;28;20031;-80
2023/05/07 19:51:56;;;;;;;27.92;20.33;;;;;;;15.42;100.00;101985.00;10296655;28;20049;-79
2023/05/07 19:56:56;;;;;;;29.33;21.33;;;;;;;15.33;100.00;102003.41;10297257;28;20117;-80
2023/05/07 20:01:57;;;;;;;25.75;21.08;;;;;;;15.19;100.00;102007.09;10297606;28;20121;-80
2023/05/07 20:06:58;;;;;;;27.00;22.08;;;;;;;15.08;100.00;102017.53;10296419;28;20486;-80
2023/05/07 20:11:58;;;;;;;35.67;26.17;;;;;;;15.00;100.00;102019.59;10295017;28;20046;-81
2023/05/07 20:16:59;;;;;;;44.63;27.27;;;;;;;14.93;100.00;102035.06;10324762;28;20054;-81
2023/05/07 20:21:59;;;;;;;38.63;26.60;;;;;;;14.89;100.00;102029.16;10337259;28;20069;-79
2023/05/07 20:27:01;;;;;;;38.90;27.23;;;;;;;14.86;100.00;102033.13;10338199;28;20066;-81
2023/05/07 20:32:02;;;;;;;48.00;32.22;;;;;;;14.78;100.00;102035.19;10319775;28;20045;-80
2023/05/07 20:37:02;;;;;;;39.00;30.98;;;;;;;14.72;100.00;102038.69;10321768;28;20063;-80
2023/05/07 20:42:05;;;;;;;41.95;30.73;;;;;;;14.69;100.00;102039.09;10320331;28;20038;-81
2023/05/07 20:47:06;;;;;;;49.90;35.83;;;;;;;14.65;100.00;102044.09;10319027;28;20031;-80
2023/05/07 20:52:06;;;;;;;44.53;30.90;;;;;;;14.61;100.00;102040.03;10335571;28;20046;-81
2023/05/07 20:57:06;;;;;;;39.83;33.88;;;;;;;14.56;100.00;102043.38;10334900;28;20034;-80
2023/05/07 21:02:07;;;;;;;48.60;32.90;;;;;;;14.47;100.00;102039.06;10334534;28;20526;-79
2023/05/07 21:07:07;;;;;;;44.65;32.20;;;;;;;14.34;100.00;102041.66;10316593;28;20430;-79
2023/05/07 21:12:08;;;;;;;60.50;34.50;;;;;;;14.29;100.00;102039.50;10334507;28;20087;-80
2023/05/07 21:17:08;;;;;;;45.17;35.45;;;;;;;14.24;100.00;102044.72;10317111;28;20076;-81
2023/05/07 21:22:09;;;;;;;40.65;32.22;;;;;;;14.15;100.00;102057.59;10334031;28;20045;-80
2023/05/07 21:27:10;;;;;;;50.85;33.17;;;;;;;14.09;100.00;102046.63;10333397;28;20042;-81
2023/05/07 21:32:10;;;;;;;46.97;34.90;;;;;;;14.05;100.00;102057.06;10317286;28;20452;-81
2023/05/07 21:37:11;;;;;;;52.55;37.08;;;;;;;14.05;100.00;102058.97;10335159;28;20042;-81
2023/05/07 21:42:12;;;;;;;45.00;34.88;;;;;;;14.02;100.00;102060.19;10333578;28;20099;-80
2023/05/07 21:47:12;;;;;;;47.08;35.30;;;;;;;13.98;100.00;102063.50;10333034;28;20073;-79
2023/05/07 21:52:14;;;;;;;49.97;34.85;;;;;;;13.96;100.00;102056.34;10335330;28;20117;-80
2023/05/07 21:57:14;;;;;;;57.38;37.58;;;;;;;13.95;100.00;102053.81;10334288;28;20057;-81
2023/05/07 22:02:15;;;;;;;44.50;32.53;;;;;;;13.89;100.00;102054.59;10315830;28;20443;-79
2023/05/07 22:07:15;;;;;;;45.30;35.75;;;;;;;13.82;100.00;102050.94;10332570;28;20034;-80
2023/05/07 22:12:16;;;;;;;49.75;34.00;;;;;;;13.73;100.00;102051.03;10337247;28;20383;-81
2023/05/07 22:17:16;;;;;;;47.92;36.70;;;;;;;13.70;100.00;102056.88;10340307;28;20105;-81
2023/05/07 22:22:18;;;;;;;48.65;35.58;;;;;;;13.62;100.00;102051.50;10308025;28;20448;-80
2023/05/07 22:27:18;;;;;;;50.85;34.25;;;;;;;13.55;100.00;102047.88;10323292;28;20125;-79